createdAt,value
2019-05-18T00:06:16.116Z,10.90
2019-05-18T00:11:12.971Z,10.90
2019-05-18T00:14:00.851Z,10.90
2019-05-18T00:16:29.286Z,10.90
2019-05-18T00:18:58.254Z,10.80
2019-05-18T00:21:27.073Z,10.70
2019-05-18T00:23:56.089Z,10.70
2019-05-18T00:26:25.003Z,10.60
2019-05-18T00:28:53.430Z,10.60
2019-05-18T00:31:21.858Z,10.50
2019-05-18T00:33:50.449Z,10.40
2019-05-18T00:36:18.958Z,10.30
2019-05-18T00:38:47.700Z,10.30
2019-05-18T00:41:16.139Z,10.20
2019-05-18T00:43:44.560Z,10.20
2019-05-18T00:46:32.498Z,10.20
2019-05-18T00:49:00.925Z,10.20
2019-05-18T00:51:29.350Z,10.20
2019-05-18T00:53:58.045Z,10.30
2019-05-18T00:56:26.491Z,10.30
2019-05-18T00:58:54.915Z,10.30
2019-05-18T01:01:23.336Z,10.30
2019-05-18T01:03:51.778Z,10.30
2019-05-18T01:06:20.742Z,10.30
2019-05-18T01:08:49.168Z,10.20
2019-05-18T01:11:17.657Z,10.10
2019-05-18T01:13:46.095Z,9.90
2019-05-18T01:16:14.527Z,9.80
2019-05-18T01:18:43.265Z,9.80
2019-05-18T01:21:12.197Z,9.80
2019-05-18T01:23:41.090Z,9.80
2019-05-18T01:26:10.350Z,9.70
2019-05-18T01:28:38.894Z,9.70
2019-05-18T01:31:07.592Z,9.60
2019-05-18T01:33:36.038Z,9.20
2019-05-18T01:36:04.835Z,9.20
2019-05-18T01:38:34.195Z,9.10
2019-05-18T01:41:02.754Z,9.10
2019-05-18T01:43:31.768Z,9.10
2019-05-18T01:46:00.341Z,9.20
2019-05-18T01:48:28.963Z,9.20
2019-05-18T01:50:58.097Z,9.20
2019-05-18T01:53:26.566Z,9.20
2019-05-18T01:55:54.989Z,9.20
2019-05-18T01:58:23.541Z,9.20
2019-05-18T02:00:52.040Z,9.20
2019-05-18T02:03:20.707Z,9.20
2019-05-18T02:05:49.187Z,9.20
2019-05-18T02:08:17.630Z,9.20
2019-05-18T02:10:46.402Z,9.20
2019-05-18T02:13:15.217Z,9.10
2019-05-18T02:15:43.709Z,9.10
2019-05-18T02:18:26.701Z,9.10
2019-05-18T02:20:42.933Z,9.10
2019-05-18T02:23:11.636Z,9.00
2019-05-18T02:25:40.088Z,9.00
2019-05-18T02:28:08.529Z,9.00
2019-05-18T02:30:37.138Z,9.10
2019-05-18T02:33:05.986Z,9.10
2019-05-18T02:35:34.606Z,9.10
2019-05-18T02:38:15.737Z,9.20
2019-05-18T02:40:45.645Z,9.30
2019-05-18T02:43:15.004Z,9.30
2019-05-18T02:45:44.411Z,9.30
2019-05-18T02:48:14.242Z,9.30
2019-05-18T02:50:42.721Z,9.20
2019-05-18T02:53:11.291Z,9.10
2019-05-18T02:55:40.138Z,9.00
2019-05-18T02:58:09.159Z,8.90
2019-05-18T03:00:56.909Z,8.70
2019-05-18T03:03:25.321Z,8.60
2019-05-18T03:05:53.926Z,8.60
2019-05-18T03:08:22.877Z,8.60
2019-05-18T03:10:51.367Z,8.70
2019-05-18T03:13:19.847Z,8.70
2019-05-18T03:15:48.342Z,8.70
2019-05-18T03:18:17.191Z,8.80
2019-05-18T03:20:45.980Z,8.80
2019-05-18T03:23:14.826Z,8.90
2019-05-18T03:25:43.670Z,8.90
2019-05-18T03:30:40.513Z,9.00
2019-05-18T03:33:08.981Z,9.10
2019-05-18T03:35:37.381Z,9.20
2019-05-18T03:38:06.172Z,9.20
2019-05-18T03:40:34.866Z,9.30
2019-05-18T03:43:03.362Z,9.30
2019-05-18T03:45:32.265Z,9.30
2019-05-18T03:48:00.677Z,9.30
2019-05-18T03:50:29.137Z,9.30
2019-05-18T03:52:58.333Z,9.20
2019-05-18T03:55:26.794Z,9.20
2019-05-18T03:57:55.225Z,9.20
2019-05-18T04:00:23.641Z,9.30
2019-05-18T04:02:52.378Z,9.40
2019-05-18T04:05:21.214Z,9.40
2019-05-18T04:07:49.703Z,9.30
2019-05-18T04:10:26.439Z,9.20
2019-05-18T04:12:55.016Z,9.10
2019-05-18T04:15:23.846Z,9.10
2019-05-18T04:17:52.329Z,9.10
2019-05-18T04:20:21.066Z,9.30
2019-05-18T04:22:49.781Z,9.30
2019-05-18T04:25:18.260Z,9.40
2019-05-18T04:27:46.689Z,9.50
2019-05-18T04:30:15.340Z,9.40
2019-05-18T04:32:44.196Z,9.50
2019-05-18T04:35:13.209Z,9.60
2019-05-18T04:37:41.710Z,9.60
2019-05-18T04:40:10.667Z,9.70
2019-05-18T04:42:39.298Z,9.70
2019-05-18T04:45:09.171Z,9.70
2019-05-18T04:47:37.875Z,9.80
2019-05-18T04:50:07.826Z,9.80
2019-05-18T04:52:36.390Z,9.90
2019-05-18T04:55:05.955Z,9.90
2019-05-18T04:57:34.363Z,9.90
2019-05-18T05:00:03.537Z,10.00
2019-05-18T05:02:32.247Z,10.00
2019-05-18T05:05:00.713Z,9.90
2019-05-18T05:07:29.218Z,10.00
2019-05-18T05:09:58.042Z,10.00
2019-05-18T05:12:26.711Z,10.10
2019-05-18T05:14:55.354Z,10.20
2019-05-18T05:17:24.157Z,10.30
2019-05-18T05:19:52.840Z,10.50
2019-05-18T05:22:21.376Z,10.60
2019-05-18T05:24:49.792Z,10.80
2019-05-18T05:27:18.442Z,10.90
2019-05-18T05:29:46.892Z,11.10
2019-05-18T05:32:15.468Z,11.30
2019-05-18T05:34:44.102Z,11.40
2019-05-18T05:37:12.585Z,11.40
2019-05-18T05:39:41.381Z,11.50
2019-05-18T05:42:10.077Z,11.60
2019-05-18T05:44:38.658Z,11.70
2019-05-18T05:47:07.069Z,11.70
2019-05-18T05:49:35.647Z,11.70
2019-05-18T05:52:04.295Z,11.80
2019-05-18T05:54:33.229Z,11.90
2019-05-18T05:57:01.971Z,11.90
2019-05-18T05:59:31.322Z,12.00
2019-05-18T06:02:00.205Z,12.10
2019-05-18T06:04:28.653Z,12.10
2019-05-18T06:06:57.310Z,12.20
2019-05-18T06:09:25.782Z,12.30
2019-05-18T06:11:54.269Z,12.40
2019-05-18T06:14:23.031Z,12.40
2019-05-18T06:16:51.441Z,12.50
2019-05-18T06:19:19.938Z,12.50
2019-05-18T06:21:48.788Z,12.60
2019-05-18T06:24:17.441Z,12.70
2019-05-18T06:26:46.147Z,12.70
2019-05-18T06:29:14.898Z,12.80
2019-05-18T06:31:43.321Z,12.80
2019-05-18T06:34:12.326Z,12.90
2019-05-18T06:36:40.921Z,12.90
2019-05-18T06:39:09.395Z,12.90
2019-05-18T06:41:37.813Z,12.80
2019-05-18T06:44:07.043Z,12.90
2019-05-18T06:46:36.414Z,12.90
2019-05-18T06:49:05.078Z,13.00
2019-05-18T06:51:33.582Z,13.10
2019-05-18T06:54:02.159Z,13.10
2019-05-18T06:56:32.868Z,13.30
2019-05-18T06:59:01.956Z,13.30
2019-05-18T07:01:30.797Z,13.50
2019-05-18T07:03:59.286Z,13.60
2019-05-18T07:06:28.196Z,13.70
2019-05-18T07:08:56.612Z,13.80
2019-05-18T07:11:25.055Z,13.90
2019-05-18T07:13:54.620Z,13.90
2019-05-18T07:16:23.636Z,14.00
2019-05-18T07:18:52.430Z,14.10
2019-05-18T07:21:22.588Z,14.00
2019-05-18T07:23:51.190Z,14.10
2019-05-18T07:26:20.541Z,14.20
2019-05-18T07:28:48.951Z,14.20
2019-05-18T07:31:18.350Z,14.30
2019-05-18T07:33:46.837Z,14.50
2019-05-18T07:36:15.512Z,14.60
2019-05-18T07:38:44.152Z,14.50
2019-05-18T07:41:12.829Z,14.40
2019-05-18T07:43:41.316Z,14.40
2019-05-18T07:46:09.737Z,14.50
2019-05-18T07:48:38.497Z,14.60
2019-05-18T07:51:06.989Z,14.70
2019-05-18T07:53:35.409Z,14.90
2019-05-18T07:56:04.333Z,15.10
2019-05-18T07:58:32.974Z,15.20
2019-05-18T08:01:01.461Z,15.20
2019-05-18T08:03:30.178Z,15.40
2019-05-18T08:05:58.601Z,15.50
2019-05-18T08:08:27.034Z,15.50
2019-05-18T08:10:55.570Z,15.60
2019-05-18T08:13:24.007Z,15.80
2019-05-18T08:15:52.564Z,15.80
2019-05-18T08:18:20.994Z,15.80
2019-05-18T08:21:04.532Z,15.90
2019-05-18T08:23:33.038Z,16.00
2019-05-18T08:26:01.542Z,16.00
2019-05-18T08:28:29.962Z,16.10
2019-05-18T08:30:58.377Z,16.10
2019-05-18T08:33:26.820Z,16.10
2019-05-18T08:35:55.250Z,16.00
2019-05-18T08:38:23.786Z,16.10
2019-05-18T08:40:52.374Z,16.00
2019-05-18T08:43:24.123Z,16.10
2019-05-18T08:45:52.772Z,16.30
2019-05-18T08:48:21.312Z,16.40
2019-05-18T08:50:51.489Z,16.40
2019-05-18T08:55:49.854Z,16.20
2019-05-18T09:00:46.406Z,16.10
2019-05-18T09:05:43.002Z,16.30
2019-05-18T09:10:39.789Z,16.60
2019-05-18T09:18:05.084Z,17.00
2019-05-18T09:20:33.791Z,17.10
2019-05-18T09:23:02.253Z,17.10
2019-05-18T09:25:30.674Z,17.20
2019-05-18T09:27:59.099Z,17.20
2019-05-18T09:30:27.520Z,17.30
2019-05-18T09:32:56.184Z,17.20
2019-05-18T09:35:24.637Z,17.20
2019-05-18T09:37:56.544Z,17.20
2019-05-18T09:40:25.018Z,17.40
2019-05-18T09:42:53.541Z,17.50
2019-05-18T09:45:24.334Z,17.60
2019-05-18T09:47:52.761Z,17.60
2019-05-18T09:50:24.283Z,17.80
2019-05-18T09:52:53.206Z,17.80
2019-05-18T09:55:22.302Z,17.70
2019-05-18T10:00:20.115Z,17.60
2019-05-18T10:02:48.537Z,17.60
2019-05-18T10:05:17.061Z,17.70
2019-05-18T10:07:45.489Z,17.70
2019-05-18T10:10:14.358Z,17.80
2019-05-18T10:12:42.796Z,17.80
2019-05-18T10:15:11.766Z,17.80
2019-05-18T10:17:40.190Z,17.80
2019-05-18T10:20:09.422Z,17.80
2019-05-18T10:25:08.314Z,18.20
2019-05-18T10:27:36.846Z,18.30
2019-05-18T10:30:08.843Z,18.30
2019-05-18T10:32:37.385Z,18.50
2019-05-18T10:35:07.006Z,18.40
2019-05-18T10:37:35.454Z,18.30
2019-05-18T10:42:01.907Z,18.40
2019-05-18T10:46:22.636Z,18.30
2019-05-18T10:48:51.061Z,18.10
2019-05-18T10:53:47.880Z,18.10
2019-05-18T11:03:40.933Z,18.20
2019-05-18T11:08:38.502Z,18.30
2019-05-18T11:11:07.033Z,18.20
2019-05-18T11:13:35.464Z,18.40
2019-05-18T11:16:04.079Z,18.50
2019-05-18T11:21:01.726Z,18.60
2019-05-18T11:28:28.661Z,18.30
2019-05-18T11:33:25.547Z,18.50
2019-05-18T11:35:53.986Z,18.70
2019-05-18T11:38:22.413Z,19.00
2019-05-18T11:40:50.865Z,19.10
2019-05-18T11:55:39.864Z,19.00
2019-05-18T11:58:08.279Z,18.90
2019-05-18T12:00:36.709Z,18.90
2019-05-18T12:03:05.120Z,18.70
2019-05-18T12:17:58.329Z,19.60
2019-05-18T12:20:26.770Z,19.70
2019-05-18T12:22:55.177Z,19.50
2019-05-18T12:25:23.607Z,19.60
2019-05-18T12:30:20.740Z,19.80
2019-05-18T12:32:49.196Z,19.90
2019-05-18T12:35:17.756Z,19.80
2019-05-18T12:37:46.859Z,19.90
2019-05-18T12:45:14.361Z,20.10
2019-05-18T12:52:39.213Z,20.00
2019-05-18T12:57:36.503Z,19.80
2019-05-18T13:02:39.888Z,19.40
2019-05-18T13:05:09.851Z,19.60
2019-05-18T13:07:38.274Z,19.80
2019-05-18T13:10:09.296Z,19.90
2019-05-18T13:18:09.419Z,20.10
2019-05-18T13:20:37.896Z,20.20
2019-05-18T13:23:06.721Z,20.20
2019-05-18T13:25:35.361Z,20.30
2019-05-18T13:28:03.777Z,20.20
2019-05-18T13:30:32.270Z,20.20
2019-05-18T13:33:00.975Z,20.30
2019-05-18T13:35:29.381Z,20.40
2019-05-18T13:37:57.934Z,20.40
2019-05-18T13:40:26.842Z,20.50
2019-05-18T13:42:55.253Z,20.60
2019-05-18T13:48:51.202Z,20.40
2019-05-18T13:51:19.630Z,20.60
2019-05-18T13:53:48.061Z,20.60
2019-05-18T13:56:16.494Z,20.60
2019-05-18T13:58:57.168Z,20.50
2019-05-18T14:01:37.253Z,20.60
2019-05-18T14:04:01.682Z,20.60
2019-05-18T14:06:30.115Z,20.60
2019-05-18T14:09:00.114Z,20.50
2019-05-18T14:11:28.991Z,20.20
2019-05-18T14:13:57.485Z,20.10
2019-05-18T14:16:41.643Z,19.90
2019-05-18T14:21:39.985Z,17.40
2019-05-18T14:24:08.837Z,17.00
2019-05-18T14:37:13.672Z,13.50
2019-05-18T14:39:42.108Z,13.30
2019-05-18T14:42:10.551Z,13.10
2019-05-18T14:44:38.998Z,13.00
2019-05-18T14:50:13.910Z,12.80
2019-05-18T15:00:09.330Z,12.70
2019-05-18T15:02:38.017Z,12.70
2019-05-18T15:12:33.863Z,12.50
2019-05-18T15:27:23.349Z,12.40
2019-05-18T15:29:51.805Z,12.30
2019-05-18T15:32:20.529Z,12.30
2019-05-18T15:52:05.707Z,12.60
2019-05-18T15:54:36.212Z,12.70
2019-05-18T15:59:32.628Z,12.80
2019-05-18T16:02:06.096Z,12.90
2019-05-18T16:26:46.588Z,13.90
2019-05-18T16:31:43.473Z,14.00
2019-05-18T16:34:12.252Z,14.00
2019-05-18T16:36:41.021Z,14.10
2019-05-18T16:39:09.475Z,14.10
2019-05-18T16:41:37.896Z,14.10
2019-05-18T16:46:34.705Z,14.30
2019-05-18T16:49:03.132Z,14.30
2019-05-18T16:51:31.841Z,14.30
2019-05-18T16:56:35.246Z,14.40
2019-05-18T17:21:31.479Z,14.30
2019-05-18T17:23:59.961Z,14.30
2019-05-18T17:26:28.781Z,14.20
2019-05-18T17:28:57.252Z,14.20
2019-05-18T17:31:26.108Z,14.10
2019-05-18T17:33:54.601Z,14.10
2019-05-18T17:36:23.417Z,14.10
2019-05-18T17:38:51.864Z,14.10
2019-05-18T17:41:20.551Z,14.10
2019-05-18T17:48:39.637Z,13.80
2019-05-18T17:51:08.293Z,13.70
2019-05-18T17:53:36.723Z,13.70
2019-05-18T17:58:33.678Z,13.70
2019-05-18T18:01:02.189Z,13.60
2019-05-18T18:03:30.678Z,13.60
2019-05-18T18:05:59.417Z,13.60
2019-05-18T18:08:28.228Z,13.60
2019-05-18T18:10:56.637Z,13.50
2019-05-18T18:13:25.081Z,13.60
2019-05-18T18:15:53.701Z,13.60
2019-05-18T18:18:22.135Z,13.60
2019-05-18T18:20:50.776Z,13.70
2019-05-18T18:23:19.327Z,13.70
2019-05-18T18:25:47.748Z,13.70
2019-05-18T18:28:16.559Z,13.60
2019-05-18T18:30:45.665Z,13.70
2019-05-18T18:33:14.150Z,13.60
2019-05-18T18:35:42.573Z,13.60
2019-05-18T18:38:10.992Z,13.60
2019-05-18T18:40:39.456Z,13.60
2019-05-18T18:43:08.145Z,13.60
2019-05-18T18:45:36.589Z,13.50
2019-05-18T18:48:05.171Z,13.50
2019-05-18T18:50:33.625Z,13.40
2019-05-18T18:53:02.033Z,13.30
2019-05-18T18:55:31.523Z,13.20
2019-05-18T18:58:00.612Z,13.20
2019-05-18T19:00:29.082Z,13.20
2019-05-18T19:02:57.493Z,13.20
2019-05-18T19:05:25.926Z,13.20
2019-05-18T19:07:54.484Z,13.20
2019-05-18T19:10:23.513Z,13.10
2019-05-18T19:12:52.005Z,13.10
2019-05-18T19:15:39.923Z,13.10
2019-05-18T19:18:08.333Z,13.00
2019-05-18T19:20:36.831Z,13.00
2019-05-18T19:23:05.234Z,12.90
2019-05-18T19:25:33.961Z,12.90
2019-05-18T19:28:02.692Z,12.90
2019-05-18T19:30:31.486Z,12.90
2019-05-18T19:32:59.970Z,12.90
2019-05-18T19:35:28.401Z,12.90
2019-05-18T19:37:57.413Z,12.90
2019-05-18T19:40:26.030Z,12.80
2019-05-18T19:42:54.448Z,12.80
2019-05-18T19:45:22.921Z,12.80
2019-05-18T19:47:51.783Z,12.80
2019-05-18T19:50:20.313Z,12.80
2019-05-18T19:52:48.769Z,12.80
2019-05-18T19:55:17.213Z,12.90
2019-05-18T19:57:46.106Z,12.90
2019-05-18T20:00:15.803Z,12.90
2019-05-18T20:02:45.101Z,12.80
2019-05-18T20:12:38.602Z,12.40
2019-05-18T20:17:36.966Z,12.30
2019-05-18T20:20:07.293Z,12.30
2019-05-18T20:22:35.840Z,12.30
2019-05-18T20:25:05.027Z,12.30
2019-05-18T20:27:33.750Z,12.40
2019-05-18T20:32:30.270Z,12.40
2019-05-18T20:34:58.691Z,12.30
2019-05-18T20:37:27.129Z,12.30
2019-05-18T20:39:55.733Z,12.30
2019-05-18T20:42:24.150Z,12.30
2019-05-18T20:44:52.559Z,12.20
2019-05-18T20:47:20.985Z,12.20
2019-05-18T20:52:17.513Z,12.10
2019-05-18T20:54:48.552Z,12.10
2019-05-18T20:57:16.978Z,12.10
2019-05-18T20:59:45.393Z,12.10
2019-05-18T21:02:13.827Z,12.10
2019-05-18T21:04:42.238Z,12.10
2019-05-18T21:07:10.656Z,12.10
2019-05-18T21:09:39.109Z,12.10
2019-05-18T21:12:07.584Z,12.10
2019-05-18T21:14:36.273Z,12.10
2019-05-18T21:17:04.722Z,12.10
2019-05-18T21:19:33.249Z,12.20
2019-05-18T21:22:01.796Z,12.20
2019-05-18T21:24:31.522Z,12.20
2019-05-18T21:27:00.264Z,12.20
2019-05-18T21:29:28.678Z,12.20
2019-05-18T21:31:58.794Z,12.20
2019-05-18T21:34:27.314Z,12.30
2019-05-18T21:36:56.238Z,12.30
2019-05-18T21:39:24.774Z,12.30
2019-05-18T21:41:54.734Z,12.30
2019-05-18T21:44:23.746Z,12.30
2019-05-18T21:46:53.493Z,12.30
2019-05-18T21:49:22.434Z,12.20
2019-05-18T21:51:51.498Z,12.20
2019-05-18T21:54:21.078Z,12.20
2019-05-18T21:56:49.489Z,12.20
2019-05-18T21:59:17.925Z,12.10
2019-05-18T22:01:46.349Z,12.10
2019-05-18T22:04:14.769Z,12.10
2019-05-18T22:06:43.212Z,12.00
2019-05-18T22:09:12.875Z,12.10
2019-05-18T22:11:41.879Z,12.00
2019-05-18T22:14:10.648Z,12.00
2019-05-18T22:16:39.069Z,12.00
2019-05-18T22:19:07.520Z,12.00
2019-05-18T22:21:35.969Z,12.10
2019-05-18T22:24:05.846Z,12.10
2019-05-18T22:26:34.448Z,12.10
2019-05-18T22:29:02.873Z,12.00
2019-05-18T22:31:31.925Z,12.00
2019-05-18T22:34:01.788Z,12.00
2019-05-18T22:36:32.583Z,12.00
2019-05-18T22:39:01.339Z,11.90
2019-05-18T22:41:29.758Z,11.90
2019-05-18T22:43:58.181Z,11.90
2019-05-18T22:46:29.204Z,11.90
2019-05-18T22:48:57.785Z,11.90
2019-05-18T22:51:26.194Z,11.90
2019-05-18T22:53:54.625Z,11.90
2019-05-18T22:56:24.127Z,11.90
2019-05-18T22:58:52.625Z,11.80
2019-05-18T23:01:22.633Z,11.80
2019-05-18T23:03:53.252Z,11.80
2019-05-18T23:08:51.105Z,11.80
2019-05-18T23:11:19.526Z,11.70
2019-05-18T23:13:47.952Z,11.70
2019-05-18T23:16:17.053Z,11.70
2019-05-18T23:18:56.303Z,11.70
2019-05-18T23:21:16.106Z,11.70
2019-05-18T23:23:44.706Z,11.70
2019-05-18T23:26:14.607Z,11.60
2019-05-18T23:28:43.341Z,11.60
2019-05-18T23:31:11.753Z,11.60
2019-05-18T23:33:41.478Z,11.50
2019-05-18T23:36:09.897Z,11.60
2019-05-18T23:43:35.955Z,11.50
2019-05-18T23:46:04.370Z,11.50
2019-05-18T23:48:32.797Z,11.50
2019-05-18T23:51:01.951Z,11.60
2019-05-18T23:53:30.477Z,11.60
2019-05-18T23:55:59.145Z,11.50
2019-05-18T23:58:27.728Z,11.60
